Time;durP1;ratioP1;P1;durP2;ratioP2;P2;SDS_P1;SDS_P2;PMS_P1;PMS_P2;Temp;Humidity;BMP_temperature;BMP_pressure;BME280_temperature;BME280_humidity;BME280_pressure;Samples;Min_cycle;Max_cycle;Signal;HPM_P1;HPM_P2
2023/07/03 00:01:26;;;;;;;;;;;;;;;20.07;100.00;99088.19;5053370;28;1945;-55
2023/07/03 00:03:53;;;;;;;;;;;;;;;19.94;100.00;99087.72;5053410;28;874;-56
2023/07/03 00:06:20;;;;;;;;;;;;;;;19.87;100.00;99088.91;5053379;28;838;-55
2023/07/03 00:08:47;;;;;;;;;;;;;;;19.96;100.00;99088.78;5053380;28;873;-56
2023/07/03 00:11:15;;;;;;;;;;;;;;;19.96;100.00;99091.59;5053534;28;949;-56
2023/07/03 00:13:42;;;;;;;;;;;;;;;19.94;100.00;99093.34;5035122;28;1313;-55
2023/07/03 00:16:09;;;;;;;;;;;;;;;19.85;100.00;99090.66;5053183;28;858;-57
2023/07/03 00:18:36;;;;;;;;;;;;;;;19.75;100.00;99099.13;5052395;28;823;-54
2023/07/03 00:21:04;;;;;;;;;;;;;;;19.69;100.00;99094.66;5053046;28;1942;-56
2023/07/03 00:23:32;;;;;;;;;;;;;;;19.59;100.00;99079.97;5053073;28;810;-56
2023/07/03 00:25:59;;;;;;;;;;;;;;;19.47;100.00;99083.81;5053062;28;803;-56
2023/07/03 00:28:25;;;;;;;;;;;;;;;19.37;100.00;99089.50;5034973;28;1319;-55
2023/07/03 00:30:53;;;;;;;;;;;;;;;19.31;100.00;99088.63;5052965;28;787;-56
2023/07/03 00:33:20;;;;;;;;;;;;;;;19.23;100.00;99095.84;5052870;28;921;-56
2023/07/03 00:35:47;;;;;;;;;;;;;;;19.20;100.00;99087.63;5052803;28;895;-55
2023/07/03 00:38:15;;;;;;;;;;;;;;;19.16;100.00;99099.00;5052753;28;827;-56
2023/07/03 00:40:42;;;;;;;;;;;;;;;19.16;100.00;99093.41;5052629;28;1890;-57
2023/07/03 00:43:10;;;;;;;;;;;;;;;19.17;100.00;99094.97;5052737;28;842;-56
2023/07/03 00:45:37;;;;;;;;;;;;;;;19.12;100.00;99095.63;5052428;28;858;-56
2023/07/03 00:48:05;;;;;;;;;;;;;;;19.08;100.00;99092.25;5052613;28;799;-56
2023/07/03 00:50:34;;;;;;;;;;;;;;;19.03;100.00;99090.84;5052487;28;854;-54
2023/07/03 00:53:03;;;;;;;;;;;;;;;18.98;100.00;99088.72;5052369;28;854;-56
2023/07/03 00:55:31;;;;;;;;;;;;;;;18.90;100.00;99088.28;5052415;28;853;-55
2023/07/03 00:57:58;;;;;;;;;;;;;;;18.86;100.00;99092.53;5034586;28;834;-55
2023/07/03 01:00:32;;;;;;;;;;;;;;;18.82;100.00;99097.53;5052241;28;1937;-55
2023/07/03 01:03:08;;;;;;;;;;;;;;;18.74;100.00;99097.88;5052349;28;811;-55
2023/07/03 01:05:40;;;;;;;;;;;;;;;18.73;100.00;99090.72;5052283;28;885;-56
2023/07/03 01:08:09;;;;;;;;;;;;;;;18.78;100.00;99092.13;5052251;28;892;-56
2023/07/03 01:10:37;;;;;;;;;;;;;;;18.85;100.00;99096.59;5052149;28;953;-55
2023/07/03 01:13:06;;;;;;;;;;;;;;;18.87;100.00;99088.50;5051728;28;1298;-56
2023/07/03 01:15:36;;;;;;;;;;;;;;;18.91;100.00;99092.66;5034338;28;1208;-56
2023/07/03 01:18:05;;;;;;;;;;;;;;;18.94;100.00;99094.50;5051951;28;842;-56
2023/07/03 01:20:35;;;;;;;;;;;;;;;18.95;100.00;99098.09;5051841;28;1963;-56
2023/07/03 01:23:04;;;;;;;;;;;;;;;18.98;100.00;99089.50;5051864;28;1104;-56
2023/07/03 01:25:35;;;;;;;;;;;;;;;18.98;100.00;99097.13;5051805;28;807;-57
2023/07/03 01:28:03;;;;;;;;;;;;;;;18.92;100.00;99088.59;5051701;28;860;-56
2023/07/03 01:30:31;;;;;;;;;;;;;;;18.87;100.00;99097.66;5051620;28;892;-55
2023/07/03 01:32:59;;;;;;;;;;;;;;;18.88;100.00;99095.63;5051831;28;814;-55
2023/07/03 01:35:27;;;;;;;;;;;;;;;18.94;100.00;99090.94;5051680;28;810;-56
2023/07/03 01:37:57;;;;;;;;;;;;;;;18.98;100.00;99089.50;5051662;28;818;-57
2023/07/03 01:40:25;;;;;;;;;;;;;;;19.13;100.00;99097.94;5052046;28;1921;-56
2023/07/03 01:42:54;;;;;;;;;;;;;;;19.24;100.00;99094.59;5051771;28;877;-56
2023/07/03 01:45:22;;;;;;;;;;;;;;;19.24;100.00;99096.63;5051496;28;913;-57
2023/07/03 01:47:49;;;;;;;;;;;;;;;19.21;100.00;99100.38;5033623;28;1200;-57
2023/07/03 01:50:20;;;;;;;;;;;;;;;19.20;100.00;99091.19;5033805;28;1241;-56
2023/07/03 01:52:54;;;;;;;;;;;;;;;19.20;100.00;99094.00;5050262;28;959;-56
2023/07/03 01:55:21;;;;;;;;;;;;;;;19.14;100.00;99087.53;5051432;28;814;-57
2023/07/03 01:58:06;;;;;;;;;;;;;;;19.11;100.00;99094.84;5051461;28;791;-56
2023/07/03 02:00:38;;;;;;;;;;;;;;;19.10;100.00;99096.09;5051376;28;1898;-56
2023/07/03 02:03:10;;;;;;;;;;;;;;;19.06;100.00;99098.31;5051371;28;803;-56
2023/07/03 02:05:38;;;;;;;;;;;;;;;19.08;100.00;99103.44;5051634;28;846;-56
2023/07/03 02:08:08;;;;;;;;;;;;;;;19.12;100.00;99107.59;5051293;28;861;-56
2023/07/03 02:10:36;;;;;;;;;;;;;;;19.15;100.00;99103.06;5051217;28;1012;-56
2023/07/03 02:13:04;;;;;;;;;;;;;;;19.23;100.00;99097.88;5051143;28;1262;-56
2023/07/03 02:15:31;;;;;;;;;;;;;;;19.28;100.00;99100.78;5051263;28;814;-56
2023/07/03 02:17:58;;;;;;;;;;;;;;;19.35;100.00;99096.81;5051306;28;830;-56
2023/07/03 02:20:25;;;;;;;;;;;;;;;19.38;100.00;99093.84;5050951;28;1979;-56
2023/07/03 02:22:53;;;;;;;;;;;;;;;19.38;100.00;99101.50;5051202;28;811;-57
2023/07/03 02:25:20;;;;;;;;;;;;;;;19.37;100.00;99108.34;5051080;28;803;-56
2023/07/03 02:27:50;;;;;;;;;;;;;;;19.41;100.00;99105.34;5051033;28;810;-56
2023/07/03 02:30:16;;;;;;;;;;;;;;;19.50;100.00;99106.06;5051007;28;807;-56
2023/07/03 02:32:43;;;;;;;;;;;;;;;19.63;100.00;99110.59;5051182;28;802;-56
2023/07/03 02:35:11;;;;;;;;;;;;;;;19.74;100.00;99105.25;5050972;28;791;-56
2023/07/03 02:37:38;;;;;;;;;;;;;;;19.94;100.00;99108.13;5051062;28;850;-57
2023/07/03 02:40:10;;;;;;;;;;;;;;;20.60;100.00;99108.94;5051845;28;862;-56
2023/07/03 02:42:37;;;;;;;;;;;;;;;21.05;100.00;99114.38;5054846;28;1890;-56
2023/07/03 02:45:06;;;;;;;;;;;;;;;21.54;100.00;99112.69;5054901;28;850;-56
2023/07/03 02:47:39;;;;;;;;;;;;;;;21.74;100.00;99111.84;5054761;28;858;-55
2023/07/03 02:50:07;;;;;;;;;;;;;;;21.83;100.00;99120.16;5054727;28;791;-56
2023/07/03 02:52:34;;;;;;;;;;;;;;;22.04;100.00;99115.22;5054648;28;901;-57
2023/07/03 02:55:01;;;;;;;;;;;;;;;22.33;100.00;99117.00;5054594;28;850;-56
2023/07/03 02:57:28;;;;;;;;;;;;;;;22.53;100.00;99115.34;5054744;28;854;-55
2023/07/03 02:59:55;;;;;;;;;;;;;;;22.64;100.00;99115.44;5054681;28;818;-56
2023/07/03 03:02:23;;;;;;;;;;;;;;;22.73;100.00;99114.47;5054543;28;1885;-55
2023/07/03 03:04:49;;;;;;;;;;;;;;;22.80;100.00;99114.75;5054525;28;794;-56
2023/07/03 03:07:17;;;;;;;;;;;;;;;22.80;100.00;99117.56;5054513;28;799;-56
2023/07/03 03:09:44;;;;;;;;;;;;;;;22.80;100.00;99114.75;5054306;28;909;-56
2023/07/03 03:12:11;;;;;;;;;;;;;;;22.80;100.00;99119.63;5053996;28;1134;-56
2023/07/03 03:14:39;;;;;;;;;;;;;;;22.71;100.00;99123.41;5054419;28;850;-56
2023/07/03 03:17:06;;;;;;;;;;;;;;;22.65;100.00;99121.84;5054310;28;856;-56
2023/07/03 03:19:33;;;;;;;;;;;;;;;22.56;100.00;99120.00;5054247;28;846;-56
2023/07/03 03:22:00;;;;;;;;;;;;;;;22.60;100.00;99131.78;5054065;28;1906;-55
2023/07/03 03:24:27;;;;;;;;;;;;;;;22.67;100.00;99122.09;5054094;28;873;-55
2023/07/03 03:26:55;;;;;;;;;;;;;;;22.67;100.00;99122.09;5054148;28;865;-55
2023/07/03 03:29:22;;;;;;;;;;;;;;;22.64;100.00;99121.06;5054015;28;819;-56
2023/07/03 03:31:49;;;;;;;;;;;;;;;22.65;100.00;99127.47;5054005;28;881;-54
2023/07/03 03:34:17;;;;;;;;;;;;;;;22.65;100.00;99119.78;5054235;28;815;-56
2023/07/03 03:36:44;;;;;;;;;;;;;;;22.63;100.00;99122.31;5053849;28;854;-56
2023/07/03 03:39:11;;;;;;;;;;;;;;;22.63;100.00;99123.09;5053814;28;897;-55
2023/07/03 03:41:39;;;;;;;;;;;;;;;22.65;100.00;99128.22;5053818;28;1885;-56
2023/07/03 03:44:06;;;;;;;;;;;;;;;22.69;100.00;99125.19;5053730;28;846;-56
2023/07/03 03:46:34;;;;;;;;;;;;;;;22.71;100.00;99119.81;5053825;28;846;-55
2023/07/03 03:49:02;;;;;;;;;;;;;;;22.75;100.00;99123.94;5053774;28;850;-55
2023/07/03 03:51:29;;;;;;;;;;;;;;;22.79;100.00;99124.47;5052844;28;822;-56
2023/07/03 03:53:57;;;;;;;;;;;;;;;22.83;100.00;99125.03;5053158;28;811;-55
2023/07/03 03:56:24;;;;;;;;;;;;;;;22.84;100.00;99123.72;5053507;28;903;-56
2023/07/03 03:58:51;;;;;;;;;;;;;;;22.88;100.00;99126.31;5053825;28;882;-55
2023/07/03 04:01:18;;;;;;;;;;;;;;;22.92;100.00;99124.03;5053374;28;1917;-54
2023/07/03 04:06:53;;;;;;;;;;;;;;;22.96;100.00;99129.44;5052893;28;1073;-56
2023/07/03 04:09:20;;;;;;;;;;;;;;;22.99;100.00;99132.00;5053333;28;834;-55
2023/07/03 04:11:47;;;;;;;;;;;;;;;23.04;100.00;99127.69;5035142;28;1315;-56
2023/07/03 04:14:15;;;;;;;;;;;;;;;23.08;100.00;99130.28;5053431;28;815;-55
2023/07/03 04:16:43;;;;;;;;;;;;;;;23.11;100.00;99126.44;5053449;28;825;-54
2023/07/03 04:19:11;;;;;;;;;;;;;;;23.17;100.00;99130.06;5053192;28;1033;-56
2023/07/03 04:21:39;;;;;;;;;;;;;;;23.29;100.00;99126.00;5052974;28;1910;-56
2023/07/03 04:24:06;;;;;;;;;;;;;;;23.44;100.00;99129.41;5052794;28;799;-56
2023/07/03 04:26:36;;;;;;;;;;;;;;;23.58;100.00;99132.53;5053239;28;861;-56
2023/07/03 04:29:04;;;;;;;;;;;;;;;23.68;100.00;99133.81;5052758;28;943;-54
2023/07/03 04:31:33;;;;;;;;;;;;;;;23.75;100.00;99130.50;5052960;28;818;-56
2023/07/03 04:34:01;;;;;;;;;;;;;;;23.83;100.00;99123.13;5035129;28;878;-55
2023/07/03 04:36:28;;;;;;;;;;;;;;;23.96;100.00;99136.72;5053086;28;873;-56
2023/07/03 04:38:57;;;;;;;;;;;;;;;24.04;100.00;99137.75;5052835;28;815;-55
2023/07/03 04:41:28;;;;;;;;;;;;;;;24.13;100.00;99144.44;5052663;28;1882;-54
2023/07/03 04:43:58;;;;;;;;;;;;;;;24.19;100.00;99139.56;5052558;28;882;-54
2023/07/03 04:46:26;;;;;;;;;;;;;;;24.29;100.00;99149.31;5052871;28;807;-56
2023/07/03 04:49:04;;;;;;;;;;;;;;;24.40;100.00;99148.53;5052412;28;902;-55
2023/07/03 04:51:32;;;;;;;;;;;;;;;24.39;100.00;99149.84;5052758;28;856;-55
2023/07/03 04:54:00;;;;;;;;;;;;;;;24.26;100.00;99158.81;5052471;28;840;-55
2023/07/03 04:56:28;;;;;;;;;;;;;;;24.19;100.00;99165.72;5052433;28;806;-53
2023/07/03 04:58:55;;;;;;;;;;;;;;;24.17;100.00;99176.00;5052484;28;854;-56
2023/07/03 05:01:24;;;;;;;;;;;;;;;24.08;100.00;99185.47;5052198;28;1882;-55
2023/07/03 05:03:51;;;;;;;;;;;;;;;23.98;100.00;99184.97;5051928;28;806;-54
2023/07/03 05:06:18;;;;;;;;;;;;;;;23.90;100.00;99183.94;5052269;28;857;-54
2023/07/03 05:08:46;;;;;;;;;;;;;;;23.90;100.00;99197.25;5052196;28;830;-55
2023/07/03 05:11:13;;;;;;;;;;;;;;;23.87;100.00;99193.41;5052290;28;858;-55
2023/07/03 05:13:41;;;;;;;;;;;;;;;23.84;100.00;99195.19;5051911;28;1282;-55
2023/07/03 05:16:08;;;;;;;;;;;;;;;23.91;100.00;99201.63;5051845;28;937;-56
2023/07/03 05:18:36;;;;;;;;;;;;;;;23.95;100.00;99208.56;5052145;28;810;-56
2023/07/03 05:21:06;;;;;;;;;;;;;;;24.03;100.00;99214.47;5051932;28;1915;-56
2023/07/03 05:23:33;;;;;;;;;;;;;;;24.13;100.00;99206.53;5051705;28;897;-55
2023/07/03 05:26:00;;;;;;;;;;;;;;;24.30;100.00;99209.38;5051897;28;787;-55
2023/07/03 05:28:27;;;;;;;;;;;;;;;24.47;100.00;99215.81;5051820;28;811;-55
2023/07/03 05:30:55;;;;;;;;;;;;;;;24.63;100.00;99220.72;5051768;28;923;-56
2023/07/03 05:33:23;;;;;;;;;;;;;;;24.88;100.00;99226.63;5051671;28;815;-55
2023/07/03 05:35:50;;;;;;;;;;;;;;;25.06;100.00;99216.81;5051770;28;818;-54
2023/07/03 05:38:17;;;;;;;;;;;;;;;25.09;100.00;99226.31;5051627;28;1027;-53
2023/07/03 05:40:45;;;;;;;;;;;;;;;25.23;100.00;99230.94;5051958;28;1871;-56
2023/07/03 05:43:13;;;;;;;;;;;;;;;25.22;100.00;99232.22;5051617;28;885;-54
2023/07/03 05:45:41;;;;;;;;;;;;;;;25.26;100.00;99244.03;5051587;28;822;-55
2023/07/03 05:48:08;;;;;;;;;;;;;;;25.30;100.00;99238.88;5051594;28;799;-56
2023/07/03 05:50:35;;;;;;;;;;;;;;;25.22;100.00;99237.88;5051495;28;881;-54
2023/07/03 05:53:03;;;;;;;;;;;;;;;25.07;100.00;99238.13;5051369;28;807;-57
2023/07/03 05:55:30;;;;;;;;;;;;;;;24.96;100.00;99241.75;5051476;28;806;-55
2023/07/03 05:57:58;;;;;;;;;;;;;;;24.94;100.00;99244.31;5067118;28;814;-55
2023/07/03 06:00:27;;;;;;;;;;;;;;;25.00;100.00;99255.63;5051340;28;850;-56
2023/07/03 06:02:56;;;;;;;;;;;;;;;25.13;100.00;99255.09;5051499;28;1957;-54
2023/07/03 06:05:23;;;;;;;;;;;;;;;25.36;100.00;99256.59;5051618;28;914;-56
2023/07/03 06:07:50;;;;;;;;;;;;;;;25.49;100.00;99269.44;5051398;28;960;-55
2023/07/03 06:10:17;;;;;;;;;;;;;;;25.55;100.00;99278.69;5051283;28;904;-55
2023/07/03 06:12:44;;;;;;;;;;;;;;;25.55;100.00;99281.50;5050948;28;1226;-56
2023/07/03 06:15:11;;;;;;;;;;;;;;;25.62;100.00;99286.63;5051983;28;845;-56
2023/07/03 06:17:40;;;;;;;;;;;;;;;25.76;100.00;99287.63;5055684;28;783;-54
2023/07/03 06:20:09;;;;;;;;;;;;;;;25.88;100.00;99280.59;5055397;28;850;-56
2023/07/03 06:22:38;;;;;;;;;;;;;;;25.94;100.00;99286.25;5055308;28;1918;-55
2023/07/03 06:25:06;;;;;;;;;;;;;;;26.08;100.00;99285.19;5055273;28;803;-54
2023/07/03 06:27:34;;;;;;;;;;;;;;;26.16;100.00;99286.16;5055199;28;901;-55
2023/07/03 06:30:03;;;;;;;;;;;;;;;26.32;100.00;99293.00;5055214;28;834;-55
2023/07/03 06:32:30;;;;;;;;;;;;;;;26.44;100.00;99285.97;5055166;28;858;-56
2023/07/03 06:34:58;;;;;;;;;;;;;;;26.52;100.00;99288.25;5037279;28;1164;-55
2023/07/03 06:37:25;;;;;;;;;;;;;;;26.71;100.00;99291.22;5055075;28;852;-55
2023/07/03 06:39:52;;;;;;;;;;;;;;;27.39;100.00;99280.81;5055020;28;870;-54
2023/07/03 06:42:20;;;;;;;;;;;;;;;29.76;100.00;99285.03;5054907;28;1896;-53
2023/07/03 06:44:47;;;;;;;;;;;;;;;30.80;96.28;99286.59;5054914;28;853;-54
2023/07/03 06:47:14;;;;;;;;;;;;;;;30.24;98.30;99286.56;5054961;28;823;-56
2023/07/03 06:49:42;;;;;;;;;;;;;;;29.49;100.00;99285.78;5054864;28;826;-55
2023/07/03 06:52:10;;;;;;;;;;;;;;;28.32;100.00;99288.50;5054746;28;826;-55
2023/07/03 06:54:37;;;;;;;;;;;;;;;27.58;100.00;99294.31;5036730;28;2279;-56
2023/07/03 06:57:04;;;;;;;;;;;;;;;27.40;100.00;99299.41;5054868;28;854;-56
2023/07/03 06:59:32;;;;;;;;;;;;;;;28.62;100.00;99294.00;5054659;28;846;-55
2023/07/03 07:01:59;;;;;;;;;;;;;;;30.65;100.00;99296.53;5036682;28;1886;-55
2023/07/03 07:04:27;;;;;;;;;;;;;;;32.40;92.16;99296.72;5054469;28;931;-55
2023/07/03 07:06:54;;;;;;;;;;;;;;;32.52;88.91;99297.91;5054523;28;870;-56
2023/07/03 07:09:21;;;;;;;;;;;;;;;31.02;93.99;99306.00;5054460;28;818;-56
2023/07/03 07:11:48;;;;;;;;;;;;;;;29.87;99.24;99313.25;5054739;28;1069;-57
2023/07/03 07:14:17;;;;;;;;;;;;;;;29.20;100.00;99316.06;5054657;28;826;-57
2023/07/03 07:16:45;;;;;;;;;;;;;;;28.92;100.00;99320.13;5054779;28;754;-57
2023/07/03 07:19:12;;;;;;;;;;;;;;;28.52;100.00;99324.88;5054868;28;865;-58
2023/07/03 07:21:43;;;;;;;;;;;;;;;28.14;100.00;99324.88;5054477;28;1987;-57
2023/07/03 07:24:13;;;;;;;;;;;;;;;28.20;100.00;99324.78;5054272;28;870;-57
2023/07/03 07:26:40;;;;;;;;;;;;;;;28.35;100.00;99324.34;5054094;28;846;-58
2023/07/03 07:29:07;;;;;;;;;;;;;;;28.60;100.00;99322.97;5054206;28;791;-57
2023/07/03 07:31:38;;;;;;;;;;;;;;;28.83;100.00;99325.47;5054035;28;796;-57
2023/07/03 07:34:06;;;;;;;;;;;;;;;29.00;100.00;99323.09;5053970;28;814;-57
2023/07/03 07:36:34;;;;;;;;;;;;;;;29.37;100.00;99329.22;5054265;28;803;-57
2023/07/03 07:39:02;;;;;;;;;;;;;;;29.42;100.00;99325.50;5054330;28;822;-57
2023/07/03 07:41:29;;;;;;;;;;;;;;;29.80;100.00;99326.09;5054171;28;2236;-57
2023/07/03 07:43:58;;;;;;;;;;;;;;;31.92;96.98;99332.16;5053818;28;838;-57
2023/07/03 07:46:28;;;;;;;;;;;;;;;33.23;83.10;99328.94;5053783;28;957;-57
2023/07/03 07:48:56;;;;;;;;;;;;;;;32.67;81.92;99314.38;5053620;28;790;-58
2023/07/03 07:51:24;;;;;;;;;;;;;;;33.63;78.12;99331.19;5054685;28;774;-57
2023/07/03 07:53:52;;;;;;;;;;;;;;;34.86;68.91;99331.44;5053779;28;1046;-57
2023/07/03 07:56:19;;;;;;;;;;;;;;;34.60;64.97;99338.47;5053881;28;802;-58
2023/07/03 07:58:47;;;;;;;;;;;;;;;33.09;64.60;99343.41;5053538;28;806;-58
2023/07/03 08:01:15;;;;;;;;;;;;;;;32.02;67.64;99343.84;5053718;28;1963;-57
2023/07/03 08:03:43;;;;;;;;;;;;;;;32.12;64.97;99344.84;5053901;28;850;-57
2023/07/03 08:06:11;;;;;;;;;;;;;;;32.50;63.72;99343.47;5053812;28;798;-57
2023/07/03 08:08:39;;;;;;;;;;;;;;;32.20;63.84;99350.63;5053835;28;835;-57
2023/07/03 08:11:07;;;;;;;;;;;;;;;32.28;65.15;99347.78;5053695;28;1091;-57
2023/07/03 08:13:34;;;;;;;;;;;;;;;33.71;61.07;99335.59;5053358;28;1376;-57
2023/07/03 08:16:01;;;;;;;;;;;;;;;34.34;59.83;99336.91;5053566;28;862;-58
2023/07/03 08:18:28;;;;;;;;;;;;;;;35.06;57.10;99334.53;5053373;28;842;-57
2023/07/03 08:20:56;;;;;;;;;;;;;;;35.67;55.06;99341.91;5053284;28;1979;-57
2023/07/03 08:23:23;;;;;;;;;;;;;;;36.03;53.21;99344.19;5053253;28;876;-56
2023/07/03 08:25:52;;;;;;;;;;;;;;;36.94;50.90;99341.44;5053076;28;822;-57
2023/07/03 08:28:19;;;;;;;;;;;;;;;37.74;45.92;99343.97;5052978;28;906;-57
2023/07/03 08:30:47;;;;;;;;;;;;;;;36.66;46.57;99347.81;5052914;28;807;-57
2023/07/03 08:33:14;;;;;;;;;;;;;;;34.70;49.92;99345.13;5052946;28;850;-57
2023/07/03 08:35:40;;;;;;;;;;;;;;;33.56;53.16;99335.56;5035028;28;842;-57
2023/07/03 08:38:09;;;;;;;;;;;;;;;33.90;53.04;99348.69;5052169;28;806;-57
2023/07/03 08:40:36;;;;;;;;;;;;;;;35.59;48.90;99336.19;5034519;28;1260;-56
2023/07/03 08:43:05;;;;;;;;;;;;;;;36.51;46.52;99335.16;5052901;28;869;-56
2023/07/03 08:45:41;;;;;;;;;;;;;;;35.81;48.06;99334.47;5052943;28;830;-57
2023/07/03 08:48:13;;;;;;;;;;;;;;;35.29;47.60;99329.41;5052978;28;791;-58
2023/07/03 08:50:43;;;;;;;;;;;;;;;35.12;48.62;99326.44;5053028;28;853;-57
2023/07/03 08:53:11;;;;;;;;;;;;;;;35.09;48.28;99337.00;5052435;28;819;-57
2023/07/03 08:55:42;;;;;;;;;;;;;;;34.89;49.14;99329.53;5033900;28;1461;-57
2023/07/03 08:58:12;;;;;;;;;;;;;;;35.43;47.91;99331.97;5045816;28;1492;-57
2023/07/03 09:00:53;;;;;;;;;;;;;;;35.48;48.08;99331.69;5032440;28;1956;-58
2023/07/03 09:03:27;;;;;;;;;;;;;;;33.15;52.98;99329.69;5032439;28;850;-57
2023/07/03 09:06:03;;;;;;;;;;;;;;;30.53;64.84;99323.75;5032339;28;854;-57
2023/07/03 09:08:34;;;;;;;;;;;;;;;29.85;71.92;99322.38;5031945;28;914;-55
2023/07/03 09:11:02;;;;;;;;;;;;;;;30.02;70.06;99330.56;5014227;28;1248;-56
2023/07/03 09:13:30;;;;;;;;;;;;;;;30.32;67.42;99338.75;5032085;28;1222;-57
2023/07/03 09:16:00;;;;;;;;;;;;;;;30.35;68.10;99333.28;5032342;28;850;-57
2023/07/03 09:18:28;;;;;;;;;;;;;;;30.02;68.83;99329.78;5032033;28;882;-57
2023/07/03 09:20:57;;;;;;;;;;;;;;;29.76;68.80;99333.44;5032266;28;1914;-57
2023/07/03 09:23:26;;;;;;;;;;;;;;;29.11;73.20;99331.47;5032129;28;819;-57
2023/07/03 09:25:57;;;;;;;;;;;;;;;28.68;78.10;99338.09;5032418;28;814;-57
2023/07/03 09:28:24;;;;;;;;;;;;;;;29.25;76.51;99328.66;5032035;28;834;-57
2023/07/03 09:30:53;;;;;;;;;;;;;;;29.50;73.41;99332.06;5031927;28;886;-57
2023/07/03 09:33:21;;;;;;;;;;;;;;;29.49;74.83;99337.00;5031966;28;858;-57
2023/07/03 09:35:48;;;;;;;;;;;;;;;29.45;75.03;99325.19;5032166;28;890;-57
2023/07/03 09:38:20;;;;;;;;;;;;;;;29.36;76.36;99330.53;5031788;28;811;-57
2023/07/03 10:12:09;;;;;;;;;;;;;;;29.60;79.88;99332.44;5503386;22;1728;-56
2023/07/03 10:14:47;;;;;;;;;;;;;;;29.69;80.03;99327.06;5064402;28;1219;-56
2023/07/03 10:17:15;;;;;;;;;;;;;;;29.65;80.83;99332.31;5053362;28;917;-57
2023/07/03 10:19:45;;;;;;;;;;;;;;;29.48;80.39;99323.31;5071591;28;849;-56
2023/07/03 10:22:13;;;;;;;;;;;;;;;29.63;79.98;99323.53;5071483;28;1906;-56
2023/07/03 10:24:42;;;;;;;;;;;;;;;30.05;77.49;99318.06;5071366;28;921;-56
2023/07/03 10:27:14;;;;;;;;;;;;;;;30.43;74.88;99322.72;5071338;28;884;-55
2023/07/03 10:29:44;;;;;;;;;;;;;;;30.83;73.08;99333.94;5071290;28;877;-55
2023/07/03 10:32:15;;;;;;;;;;;;;;;31.45;71.44;99343.84;5071266;28;822;-55
2023/07/03 10:34:46;;;;;;;;;;;;;;;32.47;63.74;99351.06;5071405;28;889;-55
2023/07/03 10:37:15;;;;;;;;;;;;;;;32.78;60.99;99350.44;5071439;28;929;-55
2023/07/03 10:39:52;;;;;;;;;;;;;;;32.80;59.64;99350.63;5071414;28;822;-56
2023/07/03 10:42:22;;;;;;;;;;;;;;;32.85;59.80;99353.28;5070996;28;1881;-56
2023/07/03 10:44:52;;;;;;;;;;;;;;;32.88;58.98;99355.03;5071053;28;885;-55
2023/07/03 10:47:40;;;;;;;;;;;;;;;33.14;58.34;99358.91;5071042;28;937;-55
2023/07/03 10:50:08;;;;;;;;;;;;;;;32.90;58.90;99360.16;5070887;28;1247;-56
2023/07/03 10:52:41;;;;;;;;;;;;;;;32.96;58.92;99352.16;5071029;28;806;-55
2023/07/03 10:55:22;;;;;;;;;;;;;;;33.88;57.22;99357.88;5071120;28;834;-57
2023/07/03 10:57:55;;;;;;;;;;;;;;;34.28;53.03;99353.56;5070942;28;885;-57
2023/07/03 11:00:32;;;;;;;;;;;;;;;34.36;52.20;99352.19;5071186;28;829;-58
2023/07/03 11:03:07;;;;;;;;;;;;;;;34.27;53.31;99346.28;5074207;28;1882;-57
2023/07/03 11:05:58;;;;;;;;;;;;;;;34.31;51.65;99343.78;5074633;28;790;-57
2023/07/03 11:08:33;;;;;;;;;;;;;;;34.64;50.79;99336.00;5069300;28;1042;-53
2023/07/03 11:11:12;;;;;;;;;;;;;;;35.10;49.83;99332.03;5074647;28;922;-54
2023/07/03 11:13:49;;;;;;;;;;;;;;;34.99;49.81;99324.63;5055038;28;889;-54
2023/07/03 11:16:17;;;;;;;;;;;;;;;34.53;50.49;99327.81;5054526;28;941;-54
2023/07/03 11:18:48;;;;;;;;;;;;;;;34.31;50.68;99326.56;5054406;28;842;-56
2023/07/03 11:21:24;;;;;;;;;;;;;;;34.51;50.59;99334.13;5054220;28;1914;-57
2023/07/03 11:23:51;;;;;;;;;;;;;;;34.35;50.31;99344.94;5054354;28;830;-56
2023/07/03 11:26:27;;;;;;;;;;;;;;;33.75;50.85;99335.16;5054269;28;822;-56
2023/07/03 11:28:55;;;;;;;;;;;;;;;34.41;51.00;99330.34;5054432;28;850;-56
2023/07/03 11:31:25;;;;;;;;;;;;;;;35.27;48.89;99323.50;5054148;28;814;-58
2023/07/03 11:33:53;;;;;;;;;;;;;;;35.94;47.81;99328.38;5036276;28;815;-55
2023/07/03 11:36:40;;;;;;;;;;;;;;;36.03;46.89;99344.19;5054086;28;909;-55
2023/07/03 11:39:10;;;;;;;;;;;;;;;35.16;47.46;99344.84;5053935;28;865;-55
2023/07/03 11:41:43;;;;;;;;;;;;;;;34.26;48.65;99350.50;5053887;28;1882;-55
2023/07/03 11:44:17;;;;;;;;;;;;;;;33.38;49.84;99343.22;5053840;28;861;-57
2023/07/03 11:46:50;;;;;;;;;;;;;;;32.71;51.65;99338.41;5054241;28;874;-56
2023/07/03 11:49:17;;;;;;;;;;;;;;;32.19;52.62;99340.50;5045951;28;909;-56
2023/07/03 11:51:44;;;;;;;;;;;;;;;31.46;54.29;99340.44;5053825;28;817;-56
2023/07/03 11:54:29;;;;;;;;;;;;;;;30.98;55.63;99339.81;5053837;28;811;-56
2023/07/03 11:56:59;;;;;;;;;;;;;;;30.66;57.06;99340.84;5053876;28;787;-55
2023/07/03 11:59:29;;;;;;;;;;;;;;;30.38;58.88;99340.72;5053655;28;799;-55
2023/07/03 12:02:11;;;;;;;;;;;;;;;30.27;60.12;99333.91;5053415;28;1949;-56
2023/07/03 12:04:47;;;;;;;;;;;;;;;30.24;60.43;99342.81;5053922;28;817;-56
2023/07/03 12:07:21;;;;;;;;;;;;;;;30.26;60.81;99343.78;5053569;28;881;-55
2023/07/03 12:09:50;;;;;;;;;;;;;;;30.41;60.92;99339.63;5053497;28;829;-56
2023/07/03 12:12:18;;;;;;;;;;;;;;;30.67;60.26;99333.06;5054934;28;1201;-56
2023/07/03 12:14:56;;;;;;;;;;;;;;;30.89;59.55;99334.63;5054815;28;1215;-55
2023/07/03 12:17:32;;;;;;;;;;;;;;;31.18;59.38;99326.88;5073322;28;822;-56
2023/07/03 12:20:07;;;;;;;;;;;;;;;31.32;58.47;99330.41;5073269;28;920;-55
2023/07/03 12:22:39;;;;;;;;;;;;;;;31.63;57.98;99330.66;5073318;28;2046;-56
2023/07/03 12:25:11;;;;;;;;;;;;;;;32.60;55.72;99312.25;5073219;28;861;-55
2023/07/03 12:27:39;;;;;;;;;;;;;;;34.70;51.48;99313.56;5073030;28;889;-56
2023/07/03 12:30:09;;;;;;;;;;;;;;;36.72;47.02;99311.66;5073076;28;924;-56
2023/07/03 12:32:37;;;;;;;;;;;;;;;37.58;44.28;99308.91;5055085;28;1349;-56
2023/07/03 12:35:17;;;;;;;;;;;;;;;38.56;42.10;99318.28;5072949;28;814;-56
2023/07/03 12:37:48;;;;;;;;;;;;;;;39.22;39.62;99314.97;5072890;28;837;-57
2023/07/03 12:40:17;;;;;;;;;;;;;;;39.73;37.55;99314.75;5054828;28;1290;-56
2023/07/03 12:42:52;;;;;;;;;;;;;;;39.07;37.46;99316.13;5072700;28;1894;-55
2023/07/03 12:45:24;;;;;;;;;;;;;;;39.12;36.40;99320.78;5054816;28;892;-55
2023/07/03 12:48:02;;;;;;;;;;;;;;;39.01;36.80;99312.78;5072613;28;854;-55
2023/07/03 12:50:30;;;;;;;;;;;;;;;39.34;36.32;99309.25;5072597;28;837;-56
2023/07/03 12:52:58;;;;;;;;;;;;;;;39.55;35.95;99314.31;5072593;28;805;-55
2023/07/03 12:55:27;;;;;;;;;;;;;;;39.62;35.36;99313.34;5072488;28;866;-55
2023/07/03 12:57:55;;;;;;;;;;;;;;;39.72;34.59;99308.22;5072407;28;874;-55
2023/07/03 13:00:29;;;;;;;;;;;;;;;39.75;33.93;99307.00;5072455;28;881;-54
2023/07/03 13:03:04;;;;;;;;;;;;;;;39.62;33.62;99298.88;5072219;28;1914;-55
2023/07/03 13:05:33;;;;;;;;;;;;;;;39.89;33.00;99295.63;5072400;28;806;-55
2023/07/03 13:08:01;;;;;;;;;;;;;;;39.83;32.75;99292.31;5072089;28;936;-55
2023/07/03 13:10:29;;;;;;;;;;;;;;;39.63;33.37;99288.09;5072354;28;1009;-55
2023/07/03 13:13:10;;;;;;;;;;;;;;;38.97;34.27;99287.25;5071897;28;1340;-55
2023/07/03 13:15:37;;;;;;;;;;;;;;;38.58;35.15;99284.53;5072210;28;810;-55
2023/07/03 13:18:16;;;;;;;;;;;;;;;38.57;35.41;99285.13;5072077;28;814;-55
2023/07/03 13:20:59;;;;;;;;;;;;;;;38.58;35.58;99286.66;5072263;28;803;-55
2023/07/03 13:23:29;;;;;;;;;;;;;;;38.48;35.19;99288.78;5072001;28;838;-55
2023/07/03 13:25:57;;;;;;;;;;;;;;;37.85;35.36;99293.56;5071779;28;841;-55
2023/07/03 13:28:25;;;;;;;;;;;;;;;36.41;37.31;99287.53;5072448;28;854;-55
2023/07/03 13:31:11;;;;;;;;;;;;;;;36.08;37.95;99287.75;5054100;28;972;-55
2023/07/03 13:33:40;;;;;;;;;;;;;;;36.78;36.96;99286.22;5072633;28;810;-55
2023/07/03 13:36:24;;;;;;;;;;;;;;;37.08;37.04;99280.56;5054022;28;1326;-55
2023/07/03 13:39:00;;;;;;;;;;;;;;;37.55;36.47;99272.63;5071703;28;846;-55
2023/07/03 13:41:28;;;;;;;;;;;;;;;37.70;36.58;99269.44;5071729;28;1889;-55
2023/07/03 13:43:58;;;;;;;;;;;;;;;38.19;35.87;99270.16;5071643;28;861;-55
2023/07/03 13:46:26;;;;;;;;;;;;;;;38.44;35.34;99268.28;5071720;28;818;-55